sensor_id;sensor_type;location;lat;lon;timestamp;pressure;altitude;pressure_sealevel;temperature;humidity
7918;BME280;4004;42.624;23.386;2022-11-09T00:00:39;94714.16;;;9.39;100.00
7918;BME280;4004;42.624;23.386;2022-11-09T00:03:06;94721.16;;;9.31;100.00
7918;BME280;4004;42.624;23.386;2022-11-09T00:05:33;94724.44;;;9.37;100.00
7918;BME280;4004;42.624;23.386;2022-11-09T00:08:00;94721.06;;;9.28;100.00
7918;BME280;4004;42.624;23.386;2022-11-09T00:10:32;94716.78;;;9.15;100.00
7918;BME280;4004;42.624;23.386;2022-11-09T00:12:59;94714.22;;;8.85;100.00
7918;BME280;4004;42.624;23.386;2022-11-09T00:15:26;94715.66;;;8.82;100.00
7918;BME280;4004;42.624;23.386;2022-11-09T00:17:53;94720.91;;;8.79;100.00
7918;BME280;4004;42.624;23.386;2022-11-09T00:20:20;94728.94;;;8.79;100.00
7918;BME280;4004;42.624;23.386;2022-11-09T00:22:47;94720.94;;;8.91;100.00
7918;BME280;4004;42.624;23.386;2022-11-09T00:25:15;94729.13;;;8.95;100.00
7918;BME280;4004;42.624;23.386;2022-11-09T00:27:43;94719.44;;;8.81;100.00
7918;BME280;4004;42.624;23.386;2022-11-09T00:30:10;94715.00;;;8.64;100.00
7918;BME280;4004;42.624;23.386;2022-11-09T00:32:37;94713.38;;;8.51;100.00
7918;BME280;4004;42.624;23.386;2022-11-09T00:35:05;94719.00;;;8.58;100.00
7918;BME280;4004;42.624;23.386;2022-11-09T00:37:32;94716.13;;;8.63;100.00
7918;BME280;4004;42.624;23.386;2022-11-09T00:39:59;94711.94;;;8.75;100.00
7918;BME280;4004;42.624;23.386;2022-11-09T00:42:26;94702.91;;;8.79;100.00
7918;BME280;4004;42.624;23.386;2022-11-09T00:44:54;94712.09;;;8.90;100.00
7918;BME280;4004;42.624;23.386;2022-11-09T00:47:20;94708.75;;;8.93;100.00
7918;BME280;4004;42.624;23.386;2022-11-09T00:49:47;94711.19;;;9.07;100.00
7918;BME280;4004;42.624;23.386;2022-11-09T00:52:14;94708.59;;;9.11;100.00
7918;BME280;4004;42.624;23.386;2022-11-09T00:54:41;94705.59;;;9.12;100.00
7918;BME280;4004;42.624;23.386;2022-11-09T00:57:07;94708.59;;;9.11;100.00
7918;BME280;4004;42.624;23.386;2022-11-09T00:59:34;94705.69;;;9.04;100.00
7918;BME280;4004;42.624;23.386;2022-11-09T01:02:02;94703.78;;;9.04;100.00
7918;BME280;4004;42.624;23.386;2022-11-09T01:04:29;94713.41;;;9.05;100.00
7918;BME280;4004;42.624;23.386;2022-11-09T01:06:56;94708.59;;;9.11;100.00
7918;BME280;4004;42.624;23.386;2022-11-09T01:09:23;94704.91;;;9.16;100.00
7918;BME280;4004;42.624;23.386;2022-11-09T01:11:49;94707.53;;;9.24;100.00
7918;BME280;4004;42.624;23.386;2022-11-09T01:14:17;94706.19;;;9.30;100.00
7918;BME280;4004;42.624;23.386;2022-11-09T01:16:43;94706.44;;;9.38;100.00
7918;BME280;4004;42.624;23.386;2022-11-09T01:19:12;94702.06;;;9.33;100.00
7918;BME280;4004;42.624;23.386;2022-11-09T01:21:38;94708.25;;;9.46;100.00
7918;BME280;4004;42.624;23.386;2022-11-09T01:24:05;94709.16;;;9.50;100.00
7918;BME280;4004;42.624;23.386;2022-11-09T01:26:32;94709.81;;;9.59;100.00
7918;BME280;4004;42.624;23.386;2022-11-09T01:28:59;94711.72;;;9.71;100.00
7918;BME280;4004;42.624;23.386;2022-11-09T01:31:26;94706.72;;;9.82;100.00
7918;BME280;4004;42.624;23.386;2022-11-09T01:33:53;94703.69;;;9.83;100.00
7918;BME280;4004;42.624;23.386;2022-11-09T01:36:22;94702.91;;;9.95;100.00
7918;BME280;4004;42.624;23.386;2022-11-09T01:38:49;94704.81;;;9.94;100.00
7918;BME280;4004;42.624;23.386;2022-11-09T01:41:19;94695.84;;;9.90;100.00
7918;BME280;4004;42.624;23.386;2022-11-09T01:44:02;94704.47;;;9.84;100.00
7918;BME280;4004;42.624;23.386;2022-11-09T01:46:33;94700.78;;;9.88;100.00
7918;BME280;4004;42.624;23.386;2022-11-09T01:49:03;94704.81;;;9.94;100.00
7918;BME280;4004;42.624;23.386;2022-11-09T01:51:38;94701.00;;;9.95;100.00
7918;BME280;4004;42.624;23.386;2022-11-09T01:54:09;94704.81;;;9.94;100.00
7918;BME280;4004;42.624;23.386;2022-11-09T01:56:38;94708.28;;;9.95;100.00
7918;BME280;4004;42.624;23.386;2022-11-09T01:59:09;94701.69;;;9.92;100.00
7918;BME280;4004;42.624;23.386;2022-11-09T02:01:37;94710.19;;;9.94;100.00
7918;BME280;4004;42.624;23.386;2022-11-09T02:04:06;94702.66;;;10.00;100.00
7918;BME280;4004;42.624;23.386;2022-11-09T02:06:36;94705.47;;;10.04;100.00
7918;BME280;4004;42.624;23.386;2022-11-09T02:09:08;94698.53;;;10.03;100.00
7918;BME280;4004;42.624;23.386;2022-11-09T02:11:36;94704.47;;;10.08;100.00
7918;BME280;4004;42.624;23.386;2022-11-09T02:14:04;94706.38;;;10.08;100.00
7918;BME280;4004;42.624;23.386;2022-11-09T02:16:32;94704.59;;;10.12;100.00
7918;BME280;4004;42.624;23.386;2022-11-09T02:19:00;94697.63;;;10.11;100.00
7918;BME280;4004;42.624;23.386;2022-11-09T02:21:29;94706.13;;;10.13;100.00
7918;BME280;4004;42.624;23.386;2022-11-09T02:23:57;94701.53;;;10.13;100.00
7918;BME280;4004;42.624;23.386;2022-11-09T02:26:29;94707.03;;;10.17;100.00
7918;BME280;4004;42.624;23.386;2022-11-09T02:28:57;94713.75;;;10.23;100.00
7918;BME280;4004;42.624;23.386;2022-11-09T02:31:31;94722.59;;;10.24;100.00
7918;BME280;4004;42.624;23.386;2022-11-09T02:34:03;94716.00;;;10.21;100.00
7918;BME280;4004;42.624;23.386;2022-11-09T02:36:33;94713.53;;;10.16;100.00
7918;BME280;4004;42.624;23.386;2022-11-09T02:39:00;94714.75;;;10.19;100.00
7918;BME280;4004;42.624;23.386;2022-11-09T02:41:29;94712.72;;;10.15;100.00
7918;BME280;4004;42.624;23.386;2022-11-09T02:43:58;94718.69;;;10.21;100.00
7918;BME280;4004;42.624;23.386;2022-11-09T02:46:30;94706.03;;;10.09;100.00
7918;BME280;4004;42.624;23.386;2022-11-09T02:48:57;94716.88;;;10.13;100.00
7918;BME280;4004;42.624;23.386;2022-11-09T02:51:24;94724.50;;;10.11;100.00
7918;BME280;4004;42.624;23.386;2022-11-09T02:53:52;94720.59;;;10.08;100.00
7918;BME280;4004;42.624;23.386;2022-11-09T02:56:19;94720.81;;;10.03;100.00
7918;BME280;4004;42.624;23.386;2022-11-09T02:58:45;94726.28;;;9.94;100.00
7918;BME280;4004;42.624;23.386;2022-11-09T03:01:12;94724.06;;;9.96;100.00
7918;BME280;4004;42.624;23.386;2022-11-09T03:03:39;94726.75;;;9.96;100.00
7918;BME280;4004;42.624;23.386;2022-11-09T03:06:06;94714.53;;;9.87;100.00
7918;BME280;4004;42.624;23.386;2022-11-09T03:08:33;94725.63;;;9.85;100.00
7918;BME280;4004;42.624;23.386;2022-11-09T03:11:01;94724.28;;;9.79;100.00
7918;BME280;4004;42.624;23.386;2022-11-09T03:13:28;94729.75;;;9.70;100.00
7918;BME280;4004;42.624;23.386;2022-11-09T03:15:54;94723.69;;;9.61;100.00
7918;BME280;4004;42.624;23.386;2022-11-09T03:18:21;94728.16;;;9.57;100.00
7918;BME280;4004;42.624;23.386;2022-11-09T03:20:48;94724.25;;;9.54;100.00
7918;BME280;4004;42.624;23.386;2022-11-09T03:23:15;94723.34;;;9.50;100.00
7918;BME280;4004;42.624;23.386;2022-11-09T03:25:41;94724.03;;;9.47;100.00
7918;BME280;4004;42.624;23.386;2022-11-09T03:28:10;94724.66;;;9.44;100.00
7918;BME280;4004;42.624;23.386;2022-11-09T03:30:37;94720.97;;;9.37;100.00
7918;BME280;4004;42.624;23.386;2022-11-09T03:33:05;94718.47;;;9.31;100.00
7918;BME280;4004;42.624;23.386;2022-11-09T03:35:34;94725.75;;;9.31;100.00
7918;BME280;4004;42.624;23.386;2022-11-09T03:38:01;94724.97;;;9.30;100.00
7918;BME280;4004;42.624;23.386;2022-11-09T03:40:28;94725.66;;;9.27;100.00
7918;BME280;4004;42.624;23.386;2022-11-09T03:42:55;94725.53;;;9.24;100.00
7918;BME280;4004;42.624;23.386;2022-11-09T03:45:23;94730.75;;;9.20;100.00
7918;BME280;4004;42.624;23.386;2022-11-09T03:47:52;94723.06;;;9.19;100.00
7918;BME280;4004;42.624;23.386;2022-11-09T03:50:21;94729.06;;;9.16;100.00
7918;BME280;4004;42.624;23.386;2022-11-09T03:52:48;94734.88;;;9.18;100.00
7918;BME280;4004;42.624;23.386;2022-11-09T03:55:14;94730.66;;;9.17;100.00
7918;BME280;4004;42.624;23.386;2022-11-09T03:57:43;94731.63;;;9.12;100.00
7918;BME280;4004;42.624;23.386;2022-11-09T04:00:12;94722.34;;;9.09;100.00
7918;BME280;4004;42.624;23.386;2022-11-09T04:02:40;94738.91;;;9.11;100.00
7918;BME280;4004;42.624;23.386;2022-11-09T04:05:08;94732.63;;;9.07;100.00
7918;BME280;4004;42.624;23.386;2022-11-09T04:07:36;94739.88;;;9.07;100.00
7918;BME280;4004;42.624;23.386;2022-11-09T04:10:03;94733.03;;;8.97;100.00
7918;BME280;4004;42.624;23.386;2022-11-09T04:12:30;94734.16;;;8.96;100.00
7918;BME280;4004;42.624;23.386;2022-11-09T04:14:57;94725.19;;;8.92;100.00
7918;BME280;4004;42.624;23.386;2022-11-09T04:17:24;94730.34;;;8.97;100.00
7918;BME280;4004;42.624;23.386;2022-11-09T04:19:52;94728.97;;;8.91;100.00
7918;BME280;4004;42.624;23.386;2022-11-09T04:22:19;94724.94;;;8.85;100.00
7918;BME280;4004;42.624;23.386;2022-11-09T04:24:46;94723.81;;;8.86;100.00
7918;BME280;4004;42.624;23.386;2022-11-09T04:27:12;94723.56;;;8.79;100.00
7918;BME280;4004;42.624;23.386;2022-11-09T04:29:39;94725.59;;;8.82;100.00
7918;BME280;4004;42.624;23.386;2022-11-09T04:32:06;94730.94;;;8.82;100.00
7918;BME280;4004;42.624;23.386;2022-11-09T04:34:33;94724.56;;;8.74;100.00
7918;BME280;4004;42.624;23.386;2022-11-09T04:37:01;94730.94;;;8.82;100.00
7918;BME280;4004;42.624;23.386;2022-11-09T04:39:28;94725.59;;;8.82;100.00
7918;BME280;4004;42.624;23.386;2022-11-09T04:41:54;94724.03;;;8.81;100.00
7918;BME280;4004;42.624;23.386;2022-11-09T04:44:21;94728.34;;;8.73;100.00
7918;BME280;4004;42.624;23.386;2022-11-09T04:46:48;94729.72;;;8.79;100.00
7918;BME280;4004;42.624;23.386;2022-11-09T04:49:15;94725.34;;;8.75;100.00
7918;BME280;4004;42.624;23.386;2022-11-09T04:51:41;94734.75;;;8.81;100.00
7918;BME280;4004;42.624;23.386;2022-11-09T04:54:10;94737.75;;;8.79;100.00
7918;BME280;4004;42.624;23.386;2022-11-09T04:56:36;94735.22;;;8.83;100.00
7918;BME280;4004;42.624;23.386;2022-11-09T04:59:03;94734.41;;;8.82;100.00
7918;BME280;4004;42.624;23.386;2022-11-09T05:01:30;94734.31;;;8.79;100.00
7918;BME280;4004;42.624;23.386;2022-11-09T05:03:57;94742.13;;;8.84;100.00
7918;BME280;4004;42.624;23.386;2022-11-09T05:06:23;94741.44;;;8.75;100.00
7918;BME280;4004;42.624;23.386;2022-11-09T05:09:00;94743.34;;;8.74;100.00
7918;BME280;4004;42.624;23.386;2022-11-09T05:11:29;94742.88;;;8.72;100.00
7918;BME280;4004;42.624;23.386;2022-11-09T05:13:56;94749.69;;;8.69;100.00
7918;BME280;4004;42.624;23.386;2022-11-09T05:16:23;94745.66;;;8.76;100.00
7918;BME280;4004;42.624;23.386;2022-11-09T05:18:50;94753.84;;;8.79;100.00
7918;BME280;4004;42.624;23.386;2022-11-09T05:21:18;94751.38;;;8.74;100.00
7918;BME280;4004;42.624;23.386;2022-11-09T05:23:45;94760.34;;;8.78;100.00
7918;BME280;4004;42.624;23.386;2022-11-09T05:26:29;94754.00;;;8.83;100.00
7918;BME280;4004;42.624;23.386;2022-11-09T05:28:56;94755.00;;;8.90;100.00
7918;BME280;4004;42.624;23.386;2022-11-09T05:31:24;94762.06;;;8.95;100.00
7918;BME280;4004;42.624;23.386;2022-11-09T05:33:52;94763.53;;;8.92;100.00
7918;BME280;4004;42.624;23.386;2022-11-09T05:36:19;94765.00;;;9.02;100.00
7918;BME280;4004;42.624;23.386;2022-11-09T05:38:46;94764.53;;;9.00;100.00
7918;BME280;4004;42.624;23.386;2022-11-09T05:41:13;94770.03;;;9.04;100.00
7918;BME280;4004;42.624;23.386;2022-11-09T05:43:42;94775.13;;;9.18;100.00
7918;BME280;4004;42.624;23.386;2022-11-09T05:46:10;94775.19;;;9.30;100.00
7918;BME280;4004;42.624;23.386;2022-11-09T05:48:37;94778.16;;;9.49;100.00
7918;BME280;4004;42.624;23.386;2022-11-09T05:51:04;94781.31;;;9.64;100.00
7918;BME280;4004;42.624;23.386;2022-11-09T05:53:31;94774.63;;;9.82;100.00
7918;BME280;4004;42.624;23.386;2022-11-09T05:56:02;94787.63;;;9.92;100.00
7918;BME280;4004;42.624;23.386;2022-11-09T05:58:30;94794.25;;;10.07;100.00
7918;BME280;4004;42.624;23.386;2022-11-09T06:01:02;94790.66;;;10.28;100.00
7918;BME280;4004;42.624;23.386;2022-11-09T06:03:29;94792.59;;;10.52;100.00
7918;BME280;4004;42.624;23.386;2022-11-09T06:05:59;94789.09;;;10.64;100.00
7918;BME280;4004;42.624;23.386;2022-11-09T06:08:27;94795.50;;;10.99;100.00
7918;BME280;4004;42.624;23.386;2022-11-09T06:10:57;94790.81;;;11.25;100.00
7918;BME280;4004;42.624;23.386;2022-11-09T06:13:24;94797.97;;;11.33;100.00
7918;BME280;4004;42.624;23.386;2022-11-09T06:15:52;94808.19;;;11.55;100.00
7918;BME280;4004;42.624;23.386;2022-11-09T06:18:21;94807.84;;;11.85;100.00
7918;BME280;4004;42.624;23.386;2022-11-09T06:20:50;94807.66;;;11.94;100.00
7918;BME280;4004;42.624;23.386;2022-11-09T06:23:17;94811.50;;;12.09;100.00
7918;BME280;4004;42.624;23.386;2022-11-09T06:25:43;94804.66;;;12.43;100.00
7918;BME280;4004;42.624;23.386;2022-11-09T06:28:10;94811.47;;;12.72;100.00
7918;BME280;4004;42.624;23.386;2022-11-09T06:30:37;94804.31;;;12.80;98.75
7918;BME280;4004;42.624;23.386;2022-11-09T06:33:04;94811.28;;;13.00;98.92
7918;BME280;4004;42.624;23.386;2022-11-09T06:35:32;94808.16;;;13.34;97.96
7918;BME280;4004;42.624;23.386;2022-11-09T06:37:59;94815.69;;;13.44;95.59
7918;BME280;4004;42.624;23.386;2022-11-09T06:40:26;94809.03;;;13.22;93.28
7918;BME280;4004;42.624;23.386;2022-11-09T06:42:55;94820.44;;;13.12;93.85
7918;BME280;4004;42.624;23.386;2022-11-09T06:45:22;94814.78;;;13.01;94.96
7918;BME280;4004;42.624;23.386;2022-11-09T06:47:49;94823.59;;;12.98;95.24
7918;BME280;4004;42.624;23.386;2022-11-09T06:50:16;94818.47;;;12.93;96.39
7918;BME280;4004;42.624;23.386;2022-11-09T06:52:44;94815.34;;;12.91;97.10
7918;BME280;4004;42.624;23.386;2022-11-09T06:55:10;94813.84;;;12.93;96.75
7918;BME280;4004;42.624;23.386;2022-11-09T06:57:37;94814.78;;;13.01;95.19
7918;BME280;4004;42.624;23.386;2022-11-09T07:00:05;94814.66;;;13.13;96.13
7918;BME280;4004;42.624;23.386;2022-11-09T07:02:32;94820.47;;;13.15;95.65
7918;BME280;4004;42.624;23.386;2022-11-09T07:04:59;94811.72;;;13.02;95.94
7918;BME280;4004;42.624;23.386;2022-11-09T07:07:26;94811.66;;;13.18;94.78
7918;BME280;4004;42.624;23.386;2022-11-09T07:09:54;94818.53;;;13.32;94.74
7918;BME280;4004;42.624;23.386;2022-11-09T07:12:21;94807.66;;;13.47;95.20
7918;BME280;4004;42.624;23.386;2022-11-09T07:14:48;94811.59;;;13.73;94.38
7918;BME280;4004;42.624;23.386;2022-11-09T07:17:15;94817.75;;;13.93;92.96
7918;BME280;4004;42.624;23.386;2022-11-09T07:19:42;94823.25;;;14.20;91.74
7918;BME280;4004;42.624;23.386;2022-11-09T07:22:08;94816.50;;;14.33;91.26
7918;BME280;4004;42.624;23.386;2022-11-09T07:24:35;94808.75;;;14.55;89.88
7918;BME280;4004;42.624;23.386;2022-11-09T07:27:03;94815.69;;;14.79;88.56
7918;BME280;4004;42.624;23.386;2022-11-09T07:29:30;94813.13;;;14.89;87.32
7918;BME280;4004;42.624;23.386;2022-11-09T07:31:57;94817.91;;;15.00;86.57
7918;BME280;4004;42.624;23.386;2022-11-09T07:34:23;94804.78;;;15.02;86.38
7918;BME280;4004;42.624;23.386;2022-11-09T07:36:51;94811.91;;;14.83;87.48
7918;BME280;4004;42.624;23.386;2022-11-09T07:39:18;94807.84;;;14.70;87.96
7918;BME280;4004;42.624;23.386;2022-11-09T07:41:46;94815.78;;;14.86;87.53
7918;BME280;4004;42.624;23.386;2022-11-09T07:44:14;94807.09;;;14.73;87.83
7918;BME280;4004;42.624;23.386;2022-11-09T07:46:42;94812.88;;;14.71;88.26
7918;BME280;4004;42.624;23.386;2022-11-09T07:49:09;94808.00;;;14.81;87.79
7918;BME280;4004;42.624;23.386;2022-11-09T07:51:38;94813.13;;;14.89;87.21
7918;BME280;4004;42.624;23.386;2022-11-09T07:54:04;94809.03;;;15.03;87.01
7918;BME280;4004;42.624;23.386;2022-11-09T07:56:31;94816.31;;;14.95;87.29
7918;BME280;4004;42.624;23.386;2022-11-09T07:58:58;94811.84;;;14.80;87.55
7918;BME280;4004;42.624;23.386;2022-11-09T08:01:27;94821.25;;;14.89;84.88
7918;BME280;4004;42.624;23.386;2022-11-09T08:03:53;94818.09;;;14.84;85.33
7918;BME280;4004;42.624;23.386;2022-11-09T08:06:20;94818.50;;;14.86;84.74
7918;BME280;4004;42.624;23.386;2022-11-09T08:08:52;94824.38;;;14.65;87.29
7918;BME280;4004;42.624;23.386;2022-11-09T08:11:19;94818.69;;;14.74;86.67
7918;BME280;4004;42.624;23.386;2022-11-09T08:13:46;94816.72;;;14.70;86.18
7918;BME280;4004;42.624;23.386;2022-11-09T08:16:13;94814.19;;;14.55;87.28
7918;BME280;4004;42.624;23.386;2022-11-09T08:18:41;94816.88;;;14.55;86.70
7918;BME280;4004;42.624;23.386;2022-11-09T08:21:08;94811.72;;;14.49;87.42
7918;BME280;4004;42.624;23.386;2022-11-09T08:23:35;94815.78;;;14.59;88.12
7918;BME280;4004;42.624;23.386;2022-11-09T08:26:02;94822.72;;;14.57;87.08
7918;BME280;4004;42.624;23.386;2022-11-09T08:28:29;94817.34;;;14.37;87.73
7918;BME280;4004;42.624;23.386;2022-11-09T08:30:58;94816.81;;;14.28;88.24
7918;BME280;4004;42.624;23.386;2022-11-09T08:33:26;94817.41;;;14.18;88.83
7918;BME280;4004;42.624;23.386;2022-11-09T08:35:54;94821.31;;;14.20;88.81
7918;BME280;4004;42.624;23.386;2022-11-09T08:38:21;94817.53;;;14.25;88.27
7918;BME280;4004;42.624;23.386;2022-11-09T08:40:48;94810.25;;;14.29;88.34
7918;BME280;4004;42.624;23.386;2022-11-09T08:43:15;94816.50;;;14.33;88.23
7918;BME280;4004;42.624;23.386;2022-11-09T08:45:42;94817.69;;;14.36;88.71
7918;BME280;4004;42.624;23.386;2022-11-09T08:48:09;94817.66;;;14.32;88.79
7918;BME280;4004;42.624;23.386;2022-11-09T08:50:36;94809.22;;;14.37;88.97
7918;BME280;4004;42.624;23.386;2022-11-09T08:53:05;94815.56;;;14.22;89.02
7918;BME280;4004;42.624;23.386;2022-11-09T08:55:32;94809.53;;;14.09;89.07
7918;BME280;4004;42.624;23.386;2022-11-09T08:58:00;94805.44;;;13.96;90.09
7918;BME280;4004;42.624;23.386;2022-11-09T09:00:28;94807.50;;;14.02;90.18
7918;BME280;4004;42.624;23.386;2022-11-09T09:02:55;94809.19;;;14.10;90.52
7918;BME280;4004;42.624;23.386;2022-11-09T09:05:22;94810.56;;;14.24;90.59
7918;BME280;4004;42.624;23.386;2022-11-09T09:07:49;94810.56;;;14.24;90.96
7918;BME280;4004;42.624;23.386;2022-11-09T09:10:17;94816.44;;;14.06;91.51
7918;BME280;4004;42.624;23.386;2022-11-09T09:12:44;94804.63;;;14.15;90.69
7918;BME280;4004;42.624;23.386;2022-11-09T09:15:11;94811.34;;;14.24;90.26
7918;BME280;4004;42.624;23.386;2022-11-09T09:17:38;94806.31;;;14.23;90.53
7918;BME280;4004;42.624;23.386;2022-11-09T09:20:06;94812.78;;;14.18;90.57
7918;BME280;4004;42.624;23.386;2022-11-09T09:22:33;94810.13;;;14.22;90.15
7918;BME280;4004;42.624;23.386;2022-11-09T09:25:00;94804.41;;;14.27;90.13
7918;BME280;4004;42.624;23.386;2022-11-09T09:27:28;94802.97;;;14.33;90.05
7918;BME280;4004;42.624;23.386;2022-11-09T09:29:55;94807.25;;;14.34;90.07
7918;BME280;4004;42.624;23.386;2022-11-09T09:32:22;94807.25;;;14.34;89.57
7918;BME280;4004;42.624;23.386;2022-11-09T09:34:48;94805.03;;;14.17;90.66
7918;BME280;4004;42.624;23.386;2022-11-09T09:37:16;94802.44;;;14.24;90.46
7918;BME280;4004;42.624;23.386;2022-11-09T09:39:43;94803.34;;;14.31;88.80
7918;BME280;4004;42.624;23.386;2022-11-09T09:42:14;94798.84;;;14.39;88.86
7918;BME280;4004;42.624;23.386;2022-11-09T09:44:48;94793.06;;;14.41;89.11
7918;BME280;4004;42.624;23.386;2022-11-09T09:47:19;94787.28;;;14.42;87.63
7918;BME280;4004;42.624;23.386;2022-11-09T09:49:52;94787.38;;;14.49;87.70
7918;BME280;4004;42.624;23.386;2022-11-09T09:52:35;94783.34;;;14.63;87.00
7918;BME280;4004;42.624;23.386;2022-11-09T09:55:07;94777.94;;;14.63;87.23
7918;BME280;4004;42.624;23.386;2022-11-09T09:57:35;94773.13;;;14.52;87.95
7918;BME280;4004;42.624;23.386;2022-11-09T10:00:06;94773.22;;;14.56;87.74
7918;BME280;4004;42.624;23.386;2022-11-09T10:02:35;94770.97;;;14.62;87.49
7918;BME280;4004;42.624;23.386;2022-11-09T10:05:08;94772.06;;;14.57;86.93
7918;BME280;4004;42.624;23.386;2022-11-09T10:07:38;94767.66;;;14.49;87.01
7918;BME280;4004;42.624;23.386;2022-11-09T10:10:27;94769.19;;;14.46;86.53
7918;BME280;4004;42.624;23.386;2022-11-09T10:13:11;94761.16;;;14.54;89.08
7918;BME280;4004;42.624;23.386;2022-11-09T10:15:47;94764.28;;;14.79;89.49
7918;BME280;4004;42.624;23.386;2022-11-09T10:18:29;94762.59;;;14.70;85.97
7918;BME280;4004;42.624;23.386;2022-11-09T10:21:10;94761.25;;;14.57;85.91
7918;BME280;4004;42.624;23.386;2022-11-09T10:23:51;94755.16;;;14.64;85.17
7918;BME280;4004;42.624;23.386;2022-11-09T10:26:26;94754.38;;;14.63;84.59
7918;BME280;4004;42.624;23.386;2022-11-09T10:28:59;94752.88;;;14.66;86.81
7918;BME280;4004;42.624;23.386;2022-11-09T10:31:31;94759.16;;;14.74;86.21
7918;BME280;4004;42.624;23.386;2022-11-09T10:34:02;94758.47;;;14.80;86.22
7918;BME280;4004;42.624;23.386;2022-11-09T10:36:41;94762.44;;;14.86;85.32
7918;BME280;4004;42.624;23.386;2022-11-09T10:39:11;94751.66;;;14.90;83.96
7918;BME280;4004;42.624;23.386;2022-11-09T10:41:41;94754.66;;;14.85;85.14
7918;BME280;4004;42.624;23.386;2022-11-09T10:44:12;94746.25;;;14.93;84.16
7918;BME280;4004;42.624;23.386;2022-11-09T10:47:07;94733.97;;;15.00;84.61
7918;BME280;4004;42.624;23.386;2022-11-09T10:49:36;94744.47;;;15.05;81.05
7918;BME280;4004;42.624;23.386;2022-11-09T10:52:03;94732.38;;;14.95;82.52
7918;BME280;4004;42.624;23.386;2022-11-09T10:54:31;94731.75;;;15.05;81.69
7918;BME280;4004;42.624;23.386;2022-11-09T10:57:11;94739.03;;;15.01;81.18
7918;BME280;4004;42.624;23.386;2022-11-09T10:59:43;94728.63;;;15.03;82.12
7918;BME280;4004;42.624;23.386;2022-11-09T11:02:43;94724.41;;;15.09;80.99
7918;BME280;4004;42.624;23.386;2022-11-09T11:05:30;94723.22;;;15.07;79.70
7918;BME280;4004;42.624;23.386;2022-11-09T11:08:10;94722.16;;;15.15;80.92
7918;BME280;4004;42.624;23.386;2022-11-09T11:10:37;94721.88;;;15.24;80.18
7918;BME280;4004;42.624;23.386;2022-11-09T11:13:22;94722.00;;;15.34;79.54
7918;BME280;4004;42.624;23.386;2022-11-09T11:15:49;94720.81;;;15.32;78.10
7918;BME280;4004;42.624;23.386;2022-11-09T11:18:20;94723.94;;;15.34;78.24
7918;BME280;4004;42.624;23.386;2022-11-09T11:21:05;94712.28;;;15.30;77.46
7918;BME280;4004;42.624;23.386;2022-11-09T11:23:32;94711.00;;;15.20;79.17
7918;BME280;4004;42.624;23.386;2022-11-09T11:26:23;94713.91;;;15.38;77.16
7918;BME280;4004;42.624;23.386;2022-11-09T11:28:53;94702.63;;;15.32;78.28
7918;BME280;4004;42.624;23.386;2022-11-09T11:31:23;94695.72;;;15.39;77.03
7918;BME280;4004;42.624;23.386;2022-11-09T11:33:51;94700.00;;;15.40;77.93
7918;BME280;4004;42.624;23.386;2022-11-09T11:36:26;94694.53;;;15.36;77.27
7918;BME280;4004;42.624;23.386;2022-11-09T11:39:04;94692.19;;;15.34;78.25
7918;BME280;4004;42.624;23.386;2022-11-09T11:41:55;94694.22;;;15.45;78.08
7918;BME280;4004;42.624;23.386;2022-11-09T11:44:36;94692.00;;;15.54;77.11
7918;BME280;4004;42.624;23.386;2022-11-09T11:47:09;94693.16;;;15.53;76.67
7918;BME280;4004;42.624;23.386;2022-11-09T11:50:00;94693.88;;;15.46;75.54
7918;BME280;4004;42.624;23.386;2022-11-09T11:52:39;94689.31;;;15.54;76.02
7918;BME280;4004;42.624;23.386;2022-11-09T11:55:24;94683.78;;;15.47;74.02
7918;BME280;4004;42.624;23.386;2022-11-09T11:58:04;94684.25;;;15.52;74.19
7918;BME280;4004;42.624;23.386;2022-11-09T12:00:41;94679.94;;;15.48;73.87
7918;BME280;4004;42.624;23.386;2022-11-09T12:03:30;94681.38;;;15.38;74.10
7918;BME280;4004;42.624;23.386;2022-11-09T12:09:19;94682.19;;;15.39;74.83
7918;BME280;4004;42.624;23.386;2022-11-09T12:11:56;94687.19;;;15.37;75.41
7918;BME280;4004;42.624;23.386;2022-11-09T12:14:34;94692.34;;;15.49;74.35
7918;BME280;4004;42.624;23.386;2022-11-09T12:17:09;94684.59;;;15.47;74.00
7918;BME280;4004;42.624;23.386;2022-11-09T12:19:51;94687.78;;;15.60;71.92
7918;BME280;4004;42.624;23.386;2022-11-09T12:22:35;94680.06;;;15.62;71.09
7918;BME280;4004;42.624;23.386;2022-11-09T12:25:12;94678.84;;;15.56;71.65
7918;BME280;4004;42.624;23.386;2022-11-09T12:28:02;94678.84;;;15.56;71.63
7918;BME280;4004;42.624;23.386;2022-11-09T12:30:42;94672.22;;;15.50;71.97
7918;BME280;4004;42.624;23.386;2022-11-09T12:33:14;94671.03;;;15.47;72.39
7918;BME280;4004;42.624;23.386;2022-11-09T12:35:49;94669.84;;;15.45;72.64
7918;BME280;4004;42.624;23.386;2022-11-09T12:38:25;94669.47;;;15.46;72.45
7918;BME280;4004;42.624;23.386;2022-11-09T12:40:57;94667.13;;;15.45;71.83
7918;BME280;4004;42.624;23.386;2022-11-09T12:43:29;94666.69;;;15.39;72.56
7918;BME280;4004;42.624;23.386;2022-11-09T12:45:58;94664.34;;;15.34;73.12
7918;BME280;4004;42.624;23.386;2022-11-09T12:48:28;94658.88;;;15.30;72.57
7918;BME280;4004;42.624;23.386;2022-11-09T12:50:56;94667.00;;;15.30;72.75
7918;BME280;4004;42.624;23.386;2022-11-09T12:53:27;94661.25;;;15.36;72.33
7918;BME280;4004;42.624;23.386;2022-11-09T12:56:00;94664.41;;;15.41;72.11
7918;BME280;4004;42.624;23.386;2022-11-09T12:58:30;94664.72;;;15.36;72.47
7918;BME280;4004;42.624;23.386;2022-11-09T13:00:58;94650.84;;;15.41;71.87
7918;BME280;4004;42.624;23.386;2022-11-09T13:03:28;94662.81;;;15.40;71.73
7918;BME280;4004;42.624;23.386;2022-11-09T13:06:14;94668.06;;;15.22;72.73
7918;BME280;4004;42.624;23.386;2022-11-09T13:08:54;94656.59;;;15.36;71.85
7918;BME280;4004;42.624;23.386;2022-11-09T13:11:28;94659.00;;;15.45;71.04
7918;BME280;4004;42.624;23.386;2022-11-09T13:16:58;94657.28;;;15.26;72.48
7918;BME280;4004;42.624;23.386;2022-11-09T13:19:47;94654.13;;;15.20;72.69
7918;BME280;4004;42.624;23.386;2022-11-09T13:25:45;94657.22;;;15.19;72.78
7918;BME280;4004;42.624;23.386;2022-11-09T13:28:40;94661.00;;;15.10;72.98
7918;BME280;4004;42.624;23.386;2022-11-09T13:31:09;94656.41;;;15.15;73.28
7918;BME280;4004;42.624;23.386;2022-11-09T13:33:36;94658.00;;;15.23;72.71